Time;durP1;ratioP1;P1;durP2;ratioP2;P2;SDS_P1;SDS_P2;PMS_P1;PMS_P2;Temp;Humidity;BMP_temperature;BMP_pressure;BME280_temperature;BME280_humidity;BME280_pressure;Samples;Min_cycle;Max_cycle;Signal;HPM_P1;HPM_P2
2022/01/16 00:05:35;;;;;;;30.33;17.50;;;;;;;0.59;62.92;98564.91;12468481;23;20024;-79
2022/01/16 00:10:56;;;;;;;32.72;19.00;;;;;;;0.57;63.14;98578.41;12478824;23;20046;-79
2022/01/16 00:16:17;;;;;;;30.35;18.35;;;;;;;0.58;63.44;98585.41;12478734;23;20019;-79
2022/01/16 00:21:41;;;;;;;31.45;18.88;;;;;;;0.61;62.87;98554.16;12478991;23;20016;-79
2022/01/16 00:27:04;;;;;;;35.08;19.00;;;;;;;0.60;63.04;98555.41;12479865;23;20046;-79
2022/01/16 00:32:24;;;;;;;29.90;18.38;;;;;;;0.57;63.52;98539.94;12478603;23;20019;-79
2022/01/16 00:37:47;;;;;;;32.33;19.75;;;;;;;0.50;63.86;98532.25;12478375;23;20101;-79
2022/01/16 00:43:07;;;;;;;34.55;20.02;;;;;;;0.50;63.69;98545.97;12459803;23;20110;-79
2022/01/16 00:48:28;;;;;;;33.40;20.00;;;;;;;0.47;63.58;98519.50;12479036;23;20025;-79
2022/01/16 00:53:49;;;;;;;31.55;18.55;;;;;;;0.48;63.69;98540.22;12478764;23;20429;-79
2022/01/16 00:59:10;;;;;;;33.13;19.63;;;;;;;0.50;63.81;98567.97;12459175;23;20342;-79
2022/01/16 01:04:30;;;;;;;33.30;20.33;;;;;;;0.47;64.17;98555.22;12430663;23;20019;-79
2022/01/16 01:09:51;;;;;;;32.35;19.73;;;;;;;0.47;63.87;98546.97;12419388;23;20472;-79
2022/01/16 01:15:12;;;;;;;31.83;19.58;;;;;;;0.43;63.91;98571.22;12416359;23;20024;-79
2022/01/16 01:20:33;;;;;;;34.67;19.88;;;;;;;0.39;64.01;98581.75;12399996;23;20044;-79
2022/01/16 01:25:54;;;;;;;37.28;21.00;;;;;;;0.34;64.23;98572.25;12419366;23;20150;-79
2022/01/16 01:31:15;;;;;;;34.90;20.63;;;;;;;0.22;64.59;98500.16;12400481;23;20089;-79
2022/01/16 01:36:37;;;;;;;33.00;19.88;;;;;;;0.14;64.48;98462.75;12438850;23;20404;-79
2022/01/16 01:42:07;;;;;;;36.47;20.63;;;;;;;0.09;64.90;98463.53;12419950;23;20024;-79
2022/01/16 01:53:07;;;;;;;36.38;20.05;;;;;;;-0.05;65.26;98503.78;12406541;23;20030;-79
2022/01/16 01:58:28;;;;;;;33.22;19.95;;;;;;;-0.02;64.61;98508.25;12419719;23;20023;-79
2022/01/16 02:03:49;;;;;;;34.85;19.92;;;;;;;-0.05;64.97;98501.78;12503603;23;20022;-79
2022/01/16 02:09:10;;;;;;;33.60;20.95;;;;;;;-0.09;65.10;98484.09;12536010;23;20023;-79
2022/01/16 02:14:46;;;;;;;33.78;20.23;;;;;;;-0.08;65.42;98496.56;12516986;23;20019;-79
2022/01/16 02:31:27;;;;;;;31.95;19.23;;;;;;;-0.02;65.15;98494.50;12521634;23;20023;-79
2022/01/16 02:36:51;;;;;;;27.90;18.05;;;;;;;-0.03;64.91;98501.25;12513825;23;20041;-79
2022/01/16 02:42:12;;;;;;;30.80;18.75;;;;;;;-0.08;65.04;98472.59;12516198;23;20326;-79
2022/01/16 02:47:34;;;;;;;33.05;19.50;;;;;;;-0.13;65.67;98454.13;12540179;23;20036;-79
2022/01/16 02:53:15;;;;;;;30.98;18.60;;;;;;;-0.19;65.53;98466.38;12528543;23;20029;-79
2022/01/16 02:58:35;;;;;;;38.53;20.17;;;;;;;-0.20;65.59;98471.13;12539341;23;20378;-79
2022/01/16 03:03:56;;;;;;;35.80;20.58;;;;;;;-0.26;65.20;98469.66;12526004;23;20329;-79
2022/01/16 03:09:19;;;;;;;34.90;19.23;;;;;;;-0.28;65.46;98466.69;12520334;23;20379;-79
2022/01/16 03:14:40;;;;;;;33.70;21.13;;;;;;;-0.35;65.28;98440.50;12540011;23;20041;-79
2022/01/16 03:25:41;;;;;;;33.65;19.15;;;;;;;-0.42;66.21;98439.03;12527093;23;20019;-79
2022/01/16 03:31:03;;;;;;;33.60;20.05;;;;;;;-0.43;66.35;98414.84;12520118;23;20098;-79
2022/01/16 03:36:23;;;;;;;33.53;19.83;;;;;;;-0.47;66.61;98422.59;12539592;23;20038;-79
2022/01/16 03:41:45;;;;;;;35.72;20.65;;;;;;;-0.48;65.95;98405.41;12519985;23;20348;-79
2022/01/16 03:47:05;;;;;;;31.27;18.73;;;;;;;-0.44;66.46;98391.41;12538719;23;20018;-79
2022/01/16 03:52:26;;;;;;;28.90;18.50;;;;;;;-0.47;66.02;98395.91;12518874;23;20090;-79
2022/01/16 03:57:47;;;;;;;34.97;19.10;;;;;;;-0.49;66.33;98395.66;12498970;23;20023;-79
2022/01/16 04:03:08;;;;;;;31.30;19.02;;;;;;;-0.50;66.24;98388.69;12518077;23;20029;-79
2022/01/16 04:08:30;;;;;;;31.63;18.75;;;;;;;-0.49;66.61;98389.44;12519581;23;20327;-79
2022/01/16 04:13:53;;;;;;;30.48;19.27;;;;;;;-0.45;66.49;98384.44;12519926;23;20462;-79
2022/01/16 04:19:21;;;;;;;28.02;17.33;;;;;;;-0.43;66.64;98390.16;12501789;23;20045;-79
2022/01/16 04:24:41;;;;;;;27.88;17.50;;;;;;;-0.41;66.81;98388.41;12558919;23;20019;-79
2022/01/16 04:30:03;;;;;;;27.63;16.90;;;;;;;-0.45;66.69;98393.41;12539535;23;20025;-80
2022/01/16 04:35:24;;;;;;;28.67;17.02;;;;;;;-0.47;66.66;98378.72;12539023;23;20070;-80
2022/01/16 04:43:47;;;;;;;27.02;16.52;;;;;;;-0.52;66.66;98371.25;12522037;23;20396;-79
2022/01/16 04:46:29;;;;;;;28.00;17.92;;;;;;;-0.55;66.72;98358.53;12545950;23;20072;-79
2022/01/16 04:51:51;;;;;;;26.88;17.27;;;;;;;-0.54;67.07;98360.03;12538269;23;20027;-79
2022/01/16 04:57:13;;;;;;;26.55;17.30;;;;;;;-0.56;66.88;98341.34;12518462;23;20077;-79
2022/01/16 05:02:34;;;;;;;26.45;16.90;;;;;;;-0.56;66.53;98327.63;12518429;23;20385;-79
2022/01/16 05:07:54;;;;;;;24.38;16.63;;;;;;;-0.56;66.90;98329.63;12535499;23;20018;-79
2022/01/16 05:13:29;;;;;;;27.17;16.35;;;;;;;-0.55;66.57;98326.38;12517802;23;20413;-79
2022/01/16 05:18:50;;;;;;;24.92;16.63;;;;;;;-0.55;66.92;98303.69;12523137;23;20374;-79
2022/01/16 05:24:11;;;;;;;27.08;16.83;;;;;;;-0.49;66.76;98310.63;12498086;23;20023;-79
2022/01/16 05:29:33;;;;;;;30.70;18.00;;;;;;;-0.48;66.91;98306.66;12517832;23;20371;-79
2022/01/16 05:34:53;;;;;;;25.42;16.88;;;;;;;-0.44;66.99;98301.63;12515397;23;20023;-79
2022/01/16 05:40:14;;;;;;;30.15;16.83;;;;;;;-0.54;66.84;98299.69;12495605;23;20170;-79
2022/01/16 05:45:35;;;;;;;26.63;15.43;;;;;;;-0.60;66.60;98307.94;12533445;23;20018;-79
2022/01/16 05:50:56;;;;;;;26.45;16.70;;;;;;;-0.65;66.98;98305.97;12515039;23;20018;-79
2022/01/16 05:56:17;;;;;;;28.33;17.13;;;;;;;-0.74;66.75;98296.06;12514411;23;20023;-79
2022/01/16 06:01:38;;;;;;;25.35;15.52;;;;;;;-0.78;66.92;98297.53;12516022;23;20027;-79
2022/01/16 06:06:59;;;;;;;26.50;16.48;;;;;;;-0.80;67.10;98300.81;12496557;23;20497;-79
2022/01/16 06:12:20;;;;;;;28.88;17.85;;;;;;;-0.82;66.85;98302.56;12515932;23;20034;-79
2022/01/16 06:17:40;;;;;;;27.35;16.67;;;;;;;-0.83;67.09;98301.81;12536460;23;20387;-79
2022/01/16 06:23:01;;;;;;;28.55;17.42;;;;;;;-0.90;67.38;98303.06;12519767;23;20029;-79
2022/01/16 06:28:23;;;;;;;29.95;17.88;;;;;;;-0.89;66.91;98304.56;12520681;23;20023;-79
2022/01/16 06:33:43;;;;;;;27.58;17.55;;;;;;;-0.89;67.12;98290.13;12520733;23;20333;-79
2022/01/16 06:39:06;;;;;;;26.05;16.80;;;;;;;-0.90;67.06;98289.38;12501558;23;20030;-79
2022/01/16 06:44:27;;;;;;;27.27;18.15;;;;;;;-0.98;67.13;98290.41;12520875;23;20069;-80
2022/01/16 06:49:48;;;;;;;27.23;16.98;;;;;;;-0.94;66.99;98302.59;12519365;23;20412;-79
2022/01/16 06:55:09;;;;;;;30.08;17.83;;;;;;;-0.94;67.22;98297.13;12500835;23;20025;-79
2022/01/16 07:00:30;;;;;;;25.27;15.45;;;;;;;-0.87;67.13;98293.09;12520024;23;20024;-79
2022/01/16 07:05:51;;;;;;;21.83;13.75;;;;;;;-0.88;66.82;98295.09;12500148;23;20359;-79
2022/01/16 07:11:11;;;;;;;23.20;15.13;;;;;;;-0.76;66.96;98297.81;12529255;23;20030;-80
2022/01/16 07:16:33;;;;;;;23.88;14.48;;;;;;;-0.03;66.90;98312.63;12525440;23;20027;-81
2022/01/16 07:21:54;;;;;;;21.92;13.38;;;;;;;1.47;64.63;98308.94;12524806;23;20026;-80
2022/01/16 07:27:15;;;;;;;21.55;14.27;;;;;;;2.44;61.99;98326.34;12504279;23;20098;-81
2022/01/16 07:32:36;;;;;;;21.08;14.45;;;;;;;4.69;58.16;98326.72;12521739;23;20019;-81
2022/01/16 07:37:57;;;;;;;21.20;14.32;;;;;;;6.59;57.04;98326.09;12520650;23;20018;-80
2022/01/16 07:43:19;;;;;;;22.85;15.38;;;;;;;8.09;51.70;98326.84;12519612;23;20345;-80
2022/01/16 07:48:40;;;;;;;23.80;16.48;;;;;;;9.11;54.75;98338.94;12518980;23;20082;-78
2022/01/16 07:54:01;;;;;;;23.02;16.33;;;;;;;8.11;54.95;98333.34;12499865;23;20031;-78
2022/01/16 07:59:21;;;;;;;24.35;17.08;;;;;;;10.24;51.44;98329.88;12538834;23;20078;-78
2022/01/16 08:04:42;;;;;;;24.98;18.13;;;;;;;13.59;44.28;98343.97;12502769;23;20030;-78
2022/01/16 08:10:03;;;;;;;28.42;18.95;;;;;;;16.08;42.56;98342.81;12537687;23;20025;-78
2022/01/16 08:15:24;;;;;;;23.48;18.20;;;;;;;17.99;39.98;98339.34;12538420;23;20015;-78
2022/01/16 08:20:46;;;;;;;22.35;16.70;;;;;;;15.39;40.46;98339.63;12499216;23;20453;-78
2022/01/16 08:26:07;;;;;;;23.15;17.45;;;;;;;13.38;42.19;98323.03;12538650;23;20015;-78
2022/01/16 08:31:27;;;;;;;25.15;18.42;;;;;;;9.95;43.65;98305.31;12520326;23;20034;-78
2022/01/16 08:36:48;;;;;;;25.17;17.90;;;;;;;8.05;45.88;98307.78;12541461;23;20094;-78
2022/01/16 08:42:10;;;;;;;27.35;18.92;;;;;;;6.57;48.04;98307.25;12539054;23;20026;-78
2022/01/16 08:47:31;;;;;;;22.75;16.17;;;;;;;5.26;48.14;98301.09;12521008;23;20026;-77
2022/01/16 08:52:52;;;;;;;26.33;18.83;;;;;;;3.91;49.84;98295.41;12544686;23;20073;-78
2022/01/16 08:58:13;;;;;;;27.80;18.85;;;;;;;3.23;51.37;98296.09;12537642;23;20026;-77
2022/01/16 09:03:34;;;;;;;30.63;19.17;;;;;;;3.07;51.32;98306.16;12517282;23;20056;-80
2022/01/16 09:08:55;;;;;;;26.23;17.75;;;;;;;3.14;52.15;98299.28;12518327;23;20019;-81
2022/01/16 09:14:16;;;;;;;26.67;17.65;;;;;;;2.89;52.16;98326.31;12537365;23;20014;-80
2022/01/16 09:19:36;;;;;;;24.38;15.32;;;;;;;2.46;52.40;98324.53;12556834;23;20019;-80
2022/01/16 09:24:57;;;;;;;22.70;13.98;;;;;;;2.43;53.51;98322.84;12538052;23;20015;-80
2022/01/16 09:30:18;;;;;;;21.67;14.70;;;;;;;2.53;53.37;98325.94;12517843;23;20026;-80
2022/01/16 09:35:39;;;;;;;21.85;13.77;;;;;;;2.48;53.98;98330.25;12538730;23;20074;-80
2022/01/16 09:40:59;;;;;;;19.42;12.82;;;;;;;2.44;53.85;98329.84;12556002;23;20019;-80
2022/01/16 09:46:20;;;;;;;21.38;13.07;;;;;;;2.36;53.80;98306.91;12556435;23;20026;-80
2022/01/16 09:51:42;;;;;;;21.85;13.43;;;;;;;2.22;55.02;98313.63;12537593;23;20026;-80
2022/01/16 09:57:04;;;;;;;22.83;14.20;;;;;;;2.05;55.59;98305.66;12516003;23;20079;-80
2022/01/16 10:02:24;;;;;;;24.88;14.45;;;;;;;2.09;55.73;98308.09;12517058;23;20023;-80
2022/01/16 10:07:45;;;;;;;24.92;15.23;;;;;;;2.16;55.44;98288.22;12516473;23;20034;-80
2022/01/16 10:13:20;;;;;;;21.48;13.43;;;;;;;2.36;55.81;98268.34;12537176;23;20019;-80
2022/01/16 10:18:41;;;;;;;25.75;15.75;;;;;;;2.50;57.30;98261.56;12537597;23;20019;-80
2022/01/16 10:24:18;;;;;;;21.98;13.65;;;;;;;2.63;55.95;98257.38;12556006;23;20342;-80
2022/01/16 10:29:40;;;;;;;24.20;15.02;;;;;;;2.50;57.01;98236.03;12517581;23;20473;-80
2022/01/16 10:35:15;;;;;;;23.67;13.68;;;;;;;2.35;55.90;98224.78;12517042;23;20335;-80
2022/01/16 10:40:37;;;;;;;23.73;14.30;;;;;;;2.55;56.95;98227.69;12535311;23;20022;-80
2022/01/16 10:45:59;;;;;;;23.48;14.65;;;;;;;2.73;57.06;98228.84;12537398;23;20015;-80
2022/01/16 10:51:40;;;;;;;24.45;15.35;;;;;;;2.83;57.04;98221.63;12564162;23;20051;-82
2022/01/16 10:57:37;;;;;;;22.35;14.35;;;;;;;2.98;57.89;98231.38;12541185;23;20015;-80
2022/01/16 11:03:00;;;;;;;24.38;15.68;;;;;;;3.04;57.11;98235.53;12469969;23;20467;-84
2022/01/16 11:08:22;;;;;;;24.40;15.20;;;;;;;2.99;57.15;98227.34;12539405;23;20014;-79
2022/01/16 11:13:43;;;;;;;25.17;15.93;;;;;;;3.07;57.18;98220.66;12539126;23;20021;-79
2022/01/16 11:19:06;;;;;;;21.55;14.40;;;;;;;3.12;57.54;98208.03;12538679;23;20338;-79
2022/01/16 11:29:54;;;;;;;23.38;15.05;;;;;;;3.02;58.65;98202.22;12536900;23;20018;-83
2022/01/16 11:35:22;;;;;;;24.50;15.60;;;;;;;3.10;58.29;98194.03;12905912;23;20031;-79
2022/01/16 11:40:50;;;;;;;22.83;15.00;;;;;;;3.14;58.36;98192.44;12891837;23;20020;-82
2022/01/16 11:46:12;;;;;;;24.27;15.38;;;;;;;3.13;58.32;98192.97;12924903;22;20029;-79
2022/01/16 11:51:33;;;;;;;21.25;15.35;;;;;;;3.17;59.51;98194.13;12904688;23;20016;-77
2022/01/16 11:56:59;;;;;;;20.55;13.70;;;;;;;3.20;59.71;98186.06;12950229;23;20012;-81
2022/01/16 12:02:22;;;;;;;20.05;14.02;;;;;;;3.20;60.25;98181.28;12858282;23;20087;-79
2022/01/16 12:07:46;;;;;;;18.83;13.80;;;;;;;3.24;59.54;98189.22;12863987;23;20450;-79
2022/01/16 12:13:43;;;;;;;20.02;13.35;;;;;;;3.21;60.08;98193.06;12864451;23;20016;-81
2022/01/16 12:19:42;;;;;;;21.60;13.98;;;;;;;3.19;60.93;98190.84;12904155;23;20370;-80
2022/01/16 12:25:04;;;;;;;21.35;13.55;;;;;;;3.16;60.85;98197.41;12886142;23;20016;-79
2022/01/16 12:30:44;;;;;;;18.00;12.68;;;;;;;3.14;60.51;98199.97;12884144;23;20020;-79
2022/01/16 12:36:19;;;;;;;17.08;11.13;;;;;;;3.17;61.52;98183.06;12883531;23;20455;-80
2022/01/16 12:41:45;;;;;;;;;;;;;;;3.13;62.24;98179.91;12861881;23;20399;-80
2022/01/16 12:47:09;;;;;;;16.42;9.93;;;;;;;3.23;61.68;98179.47;12883319;23;19916;-80
2022/01/16 12:52:33;;;;;;;15.73;9.70;;;;;;;3.21;61.90;98171.00;12882906;23;20070;-80
2022/01/16 12:58:19;;;;;;;13.85;9.15;;;;;;;3.19;61.68;98162.50;12904406;23;20091;-80
2022/01/16 13:03:43;;;;;;;12.73;7.63;;;;;;;3.13;62.06;98165.38;12907882;23;20026;-82
2022/01/16 13:09:09;;;;;;;13.93;8.40;;;;;;;3.05;62.75;98162.53;12887419;23;20027;-82
2022/01/16 13:14:35;;;;;;;15.23;8.40;;;;;;;3.06;63.35;98177.06;12887226;23;20023;-82
2022/01/16 13:19:59;;;;;;;15.90;8.50;;;;;;;2.97;63.40;98167.22;12887168;23;20031;-82
2022/01/16 13:25:21;;;;;;;13.02;8.02;;;;;;;2.98;64.00;98176.97;12908590;23;20047;-82
2022/01/16 13:30:44;;;;;;;12.43;7.63;;;;;;;2.97;63.49;98177.50;12887072;23;20031;-81
2022/01/16 13:36:08;;;;;;;12.95;7.70;;;;;;;2.96;63.81;98190.56;12906905;23;20355;-82
2022/01/16 13:41:30;;;;;;;14.40;8.77;;;;;;;3.01;64.40;98184.19;12939429;23;20067;-81
2022/01/16 13:46:58;;;;;;;13.20;8.88;;;;;;;3.07;64.11;98184.06;12906495;23;20027;-82
2022/01/16 13:52:25;;;;;;;13.60;8.45;;;;;;;3.05;64.21;98192.13;12894947;23;20027;-83
2022/01/16 13:57:46;;;;;;;13.38;7.82;;;;;;;3.11;64.12;98204.53;12877709;23;20016;-83
2022/01/16 14:03:12;;;;;;;11.63;7.25;;;;;;;3.03;64.08;98211.22;12893993;23;20024;-82
2022/01/16 14:08:36;;;;;;;;;;;;;;;2.93;63.49;98213.69;12924091;23;20023;-82
2022/01/16 14:14:04;;;;;;;11.05;6.88;;;;;;;2.84;63.69;98219.63;12832227;23;19981;-77
2022/01/16 14:20:02;;;;;;;11.95;7.20;;;;;;;2.79;63.87;98214.94;12799606;23;20423;-78
2022/01/16 14:25:08;;;;;;;11.27;6.70;;;;;;;2.79;63.93;98217.72;12807689;23;20123;-78
2022/01/16 14:30:29;;;;;;;10.90;6.40;;;;;;;2.73;64.27;98223.34;12799055;23;20024;-77
2022/01/16 14:35:50;;;;;;;11.60;7.05;;;;;;;2.71;64.21;98241.69;12799206;23;20016;-77
2022/01/16 14:41:12;;;;;;;9.52;6.50;;;;;;;2.62;63.91;98236.59;12820188;23;20095;-78
2022/01/16 14:46:33;;;;;;;11.30;7.10;;;;;;;2.67;64.42;98235.72;12802689;23;20021;-78
2022/01/16 14:51:55;;;;;;;9.00;6.25;;;;;;;2.69;64.51;98233.94;12802693;23;20024;-77
2022/01/16 14:57:36;;;;;;;9.30;5.60;;;;;;;2.70;64.37;98240.19;12794541;23;20465;-78
2022/01/16 15:02:57;;;;;;;9.65;6.18;;;;;;;2.73;64.15;98244.66;12802159;23;20071;-78
2022/01/16 15:08:18;;;;;;;10.35;6.05;;;;;;;2.74;64.29;98254.41;12776921;23;20021;-78
2022/01/16 15:13:39;;;;;;;9.70;6.32;;;;;;;2.75;64.15;98259.38;12825442;23;20353;-80
2022/01/16 15:19:06;;;;;;;8.98;5.88;;;;;;;2.69;64.26;98280.78;12824721;23;20066;-78
2022/01/16 15:24:27;;;;;;;9.93;6.60;;;;;;;2.64;64.65;98280.91;12823083;23;20040;-78
2022/01/16 15:29:50;;;;;;;9.38;5.90;;;;;;;2.61;64.78;98293.75;12802220;23;20467;-79
2022/01/16 15:35:11;;;;;;;8.95;5.70;;;;;;;2.63;64.55;98295.97;12822377;23;20443;-77
2022/01/16 15:40:35;;;;;;;10.52;6.38;;;;;;;2.68;64.52;98297.88;12843439;23;20040;-78
2022/01/16 15:45:57;;;;;;;9.48;6.05;;;;;;;2.66;64.30;98301.16;12807959;23;20403;-81
2022/01/16 15:51:18;;;;;;;9.40;6.07;;;;;;;2.67;64.31;98319.16;12821295;23;20075;-78
2022/01/16 15:57:02;;;;;;;9.20;5.75;;;;;;;2.63;64.25;98312.50;12827595;23;20013;-78
2022/01/16 16:02:23;;;;;;;;;;;;;;;2.59;63.91;98315.56;12840027;23;20048;-80
2022/01/16 16:07:45;;;;;;;9.43;5.93;;;;;;;2.59;64.37;98323.81;12833666;23;19963;-77
2022/01/16 16:13:07;;;;;;;9.27;5.88;;;;;;;2.58;64.22;98325.84;12800748;23;20095;-76
2022/01/16 16:18:29;;;;;;;10.18;6.63;;;;;;;2.57;64.58;98334.63;12821269;23;20082;-77
2022/01/16 16:23:50;;;;;;;10.43;7.05;;;;;;;2.55;64.62;98334.41;12801015;23;20019;-76
2022/01/16 16:29:13;;;;;;;10.45;6.38;;;;;;;2.50;64.41;98335.25;12821605;23;20019;-76
2022/01/16 16:34:34;;;;;;;9.00;5.60;;;;;;;2.45;64.39;98342.34;12820521;23;20020;-76
2022/01/16 16:39:56;;;;;;;9.63;5.80;;;;;;;2.43;64.75;98349.66;12817449;23;19997;-82
2022/01/16 16:45:18;;;;;;;7.57;4.75;;;;;;;2.40;64.27;98362.44;12839026;23;20025;-78
2022/01/16 16:50:40;;;;;;;8.93;5.63;;;;;;;2.37;64.44;98360.75;12812154;23;20031;-79
2022/01/16 16:56:01;;;;;;;9.85;6.40;;;;;;;2.36;65.46;98362.03;12828092;23;20020;-79
2022/01/16 17:01:21;;;;;;;10.18;6.55;;;;;;;2.32;65.28;98375.38;12831664;23;20135;-77
2022/01/16 17:06:43;;;;;;;11.35;6.20;;;;;;;2.34;65.62;98367.31;12840471;23;20394;-78
2022/01/16 17:12:05;;;;;;;9.15;6.13;;;;;;;2.29;65.73;98379.16;12803369;23;20380;-79
2022/01/16 17:17:42;;;;;;;8.35;5.63;;;;;;;2.30;65.47;98369.63;12845915;23;20047;-80
2022/01/16 17:23:03;;;;;;;8.68;5.50;;;;;;;2.37;65.03;98380.03;12832124;23;20020;-80
2022/01/16 17:28:25;;;;;;;7.63;5.05;;;;;;;2.40;64.96;98381.72;12843261;23;20008;-82
2022/01/16 17:33:46;;;;;;;6.68;4.45;;;;;;;2.40;64.88;98372.72;12839601;23;20044;-79
2022/01/16 17:39:09;;;;;;;8.43;5.18;;;;;;;2.37;65.05;98387.56;12839373;23;20439;-80
2022/01/16 17:44:31;;;;;;;8.00;4.88;;;;;;;2.34;64.80;98385.88;12845140;23;20043;-83
2022/01/16 17:49:54;;;;;;;7.88;5.03;;;;;;;2.31;64.99;98382.13;12842085;23;20101;-81
2022/01/16 17:55:16;;;;;;;7.10;4.15;;;;;;;2.29;65.02;98398.44;12857991;23;20021;-84
2022/01/16 18:00:37;;;;;;;7.22;4.78;;;;;;;2.34;64.83;98385.88;12834090;23;20005;-81
2022/01/16 18:05:59;;;;;;;7.80;4.97;;;;;;;2.29;64.79;98401.19;12822783;23;20336;-80
2022/01/16 18:11:20;;;;;;;8.00;5.10;;;;;;;2.31;64.98;98398.66;12810678;23;20036;-79
2022/01/16 18:16:41;;;;;;;7.55;4.53;;;;;;;2.33;65.51;98395.41;12840405;23;20146;-78
2022/01/16 18:22:03;;;;;;;10.18;6.10;;;;;;;2.32;65.25;98413.94;12800537;23;20020;-77
2022/01/16 18:27:24;;;;;;;10.57;6.90;;;;;;;2.28;64.91;98413.47;12824488;23;20339;-78
2022/01/16 18:32:45;;;;;;;9.43;6.28;;;;;;;2.23;65.69;98414.31;12841588;23;20335;-79
2022/01/16 18:38:05;;;;;;;8.02;5.43;;;;;;;2.28;65.37;98410.72;12836169;23;20017;-78
2022/01/16 18:43:26;;;;;;;9.35;5.93;;;;;;;2.29;65.98;98412.22;12819317;23;20016;-78
2022/01/16 18:48:48;;;;;;;9.02;5.95;;;;;;;2.35;66.18;98412.16;12822820;23;20092;-77
2022/01/16 18:54:10;;;;;;;9.63;5.80;;;;;;;2.37;65.67;98410.34;12843434;23;20064;-79
2022/01/16 18:59:31;;;;;;;9.63;6.00;;;;;;;2.41;65.92;98419.03;12857112;23;20308;-79
2022/01/16 19:04:53;;;;;;;9.70;6.18;;;;;;;2.45;65.86;98419.50;12829124;23;20019;-76
2022/01/16 19:10:13;;;;;;;10.70;6.60;;;;;;;2.45;65.67;98416.00;12812741;23;20017;-76
2022/01/16 19:15:36;;;;;;;10.80;6.32;;;;;;;2.44;65.29;98412.50;12818345;23;20041;-76
2022/01/16 19:20:57;;;;;;;9.75;5.97;;;;;;;2.45;65.71;98414.00;12818115;23;20073;-77
2022/01/16 19:26:20;;;;;;;8.27;5.72;;;;;;;2.47;65.12;98432.75;12798956;23;20016;-76
2022/01/16 19:31:41;;;;;;;8.30;5.75;;;;;;;2.42;65.77;98420.56;12822534;23;20070;-76
2022/01/16 19:37:03;;;;;;;8.55;5.68;;;;;;;2.41;65.36;98424.56;12821522;23;20012;-76
2022/01/16 19:42:25;;;;;;;8.68;5.88;;;;;;;2.41;65.47;98452.13;12801663;23;20071;-76
2022/01/16 19:47:45;;;;;;;8.25;5.03;;;;;;;2.45;65.81;98451.81;12841857;23;20016;-76
2022/01/16 19:53:06;;;;;;;10.50;5.45;;;;;;;2.49;65.35;98444.00;12841657;23;20016;-77
2022/01/16 19:58:28;;;;;;;7.72;5.50;;;;;;;2.46;65.74;98443.03;12841852;23;20012;-77
2022/01/16 20:03:48;;;;;;;7.53;5.03;;;;;;;2.47;65.55;98466.56;12807916;23;20083;-76
2022/01/16 20:09:09;;;;;;;8.20;4.75;;;;;;;2.52;65.43;98456.75;12787607;23;20027;-79
2022/01/16 20:14:31;;;;;;;7.00;4.85;;;;;;;2.56;65.50;98451.66;12817025;23;20451;-80
2022/01/16 20:19:53;;;;;;;6.80;4.93;;;;;;;2.54;65.20;98443.91;12813631;23;20021;-81
2022/01/16 20:25:14;;;;;;;9.05;5.45;;;;;;;2.58;65.28;98460.88;12862039;23;20021;-82
2022/01/16 20:30:40;;;;;;;14.00;5.18;;;;;;;2.58;65.19;98449.88;12836386;23;20020;-81
2022/01/16 20:36:01;;;;;;;8.50;5.60;;;;;;;2.53;65.23;98450.69;12841737;23;20039;-81
2022/01/16 20:41:22;;;;;;;8.10;5.30;;;;;;;2.46;65.28;98448.53;12869107;23;20020;-81
2022/01/16 20:46:43;;;;;;;8.50;5.78;;;;;;;2.47;65.78;98454.81;12851548;23;20039;-81
2022/01/16 20:52:04;;;;;;;9.48;5.32;;;;;;;2.49;65.42;98457.78;12823160;23;20044;-80
2022/01/16 20:57:26;;;;;;;8.23;5.25;;;;;;;2.50;65.31;98456.50;12858867;23;20031;-81
2022/01/16 21:02:47;;;;;;;6.97;4.68;;;;;;;2.52;65.87;98465.00;12842376;23;20020;-80
2022/01/16 21:08:16;;;;;;;9.32;5.78;;;;;;;2.50;65.97;98460.00;12808242;23;20016;-80
2022/01/16 21:13:37;;;;;;;7.32;5.70;;;;;;;2.54;65.68;98468.72;12710163;23;20022;-80
2022/01/16 21:18:59;;;;;;;8.70;5.70;;;;;;;2.56;65.77;98479.22;12723790;23;20025;-80
2022/01/16 21:24:20;;;;;;;9.15;6.15;;;;;;;2.58;65.44;98469.16;12703983;23;20017;-80
2022/01/16 21:29:42;;;;;;;8.48;6.03;;;;;;;2.52;65.74;98465.75;12724378;23;20025;-80
2022/01/16 21:35:03;;;;;;;8.90;6.25;;;;;;;2.49;65.65;98453.00;12743890;23;20022;-80
2022/01/16 21:40:24;;;;;;;9.70;6.47;;;;;;;2.47;66.05;98452.78;12726458;23;20032;-80
2022/01/16 21:45:45;;;;;;;11.50;6.57;;;;;;;2.49;66.08;98477.81;12744418;23;20026;-79
2022/01/16 21:51:10;;;;;;;9.80;6.47;;;;;;;2.53;65.82;98485.78;12745509;23;20022;-80
2022/01/16 21:56:31;;;;;;;8.68;6.20;;;;;;;2.54;65.81;98482.50;12725976;23;20028;-80
2022/01/16 22:01:52;;;;;;;10.15;6.70;;;;;;;2.54;65.71;98488.03;12700823;23;20076;-79
2022/01/16 22:07:13;;;;;;;10.48;6.53;;;;;;;2.59;65.61;98489.94;12705674;23;20029;-80
2022/01/16 22:12:37;;;;;;;14.88;7.32;;;;;;;2.62;65.75;98509.47;12790338;23;20024;-80
2022/01/16 22:17:58;;;;;;;12.30;7.45;;;;;;;2.65;65.58;98508.44;12829351;23;20040;-80
2022/01/16 22:23:19;;;;;;;11.32;7.32;;;;;;;2.68;65.96;98501.84;12787876;23;20458;-80
2022/01/16 22:28:40;;;;;;;11.65;7.50;;;;;;;2.70;65.34;98510.34;12808375;23;20021;-80
2022/01/16 22:34:02;;;;;;;13.10;8.65;;;;;;;2.65;66.08;98502.91;12848781;23;20098;-79
2022/01/16 22:39:24;;;;;;;12.73;8.38;;;;;;;2.65;66.06;98516.69;12848118;23;20012;-80
2022/01/16 22:44:45;;;;;;;15.05;8.80;;;;;;;2.68;66.03;98490.84;12810719;23;20131;-80
2022/01/16 22:50:07;;;;;;;14.20;9.02;;;;;;;2.69;66.01;98504.09;12825884;23;20443;-79
2022/01/16 22:55:32;;;;;;;14.70;8.40;;;;;;;2.71;66.42;98462.22;12829299;23;20024;-79
2022/01/16 23:00:53;;;;;;;16.73;10.30;;;;;;;2.70;66.11;98469.00;12828098;23;20021;-80
2022/01/16 23:06:15;;;;;;;15.25;8.75;;;;;;;2.71;65.95;98465.72;12811361;23;20393;-80
2022/01/16 23:11:36;;;;;;;14.88;9.32;;;;;;;2.68;66.50;98457.75;12822387;23;20017;-80
2022/01/16 23:16:57;;;;;;;17.95;10.63;;;;;;;2.66;66.40;98450.00;12855493;23;20087;-80
2022/01/16 23:22:22;;;;;;;15.77;10.35;;;;;;;2.72;66.42;98469.22;12833998;23;20016;-80
2022/01/16 23:27:43;;;;;;;;;;;;;;;2.72;66.22;98449.94;12835443;23;20039;-80
2022/01/16 23:33:04;;;;;;;15.50;10.27;;;;;;;2.69;66.48;98453.72;12834544;23;19923;-79
2022/01/16 23:38:25;;;;;;;16.35;10.60;;;;;;;2.69;66.20;98453.72;12835857;23;20343;-80
2022/01/16 23:43:46;;;;;;;17.15;9.90;;;;;;;2.69;66.31;98464.75;12816033;23;20453;-80
2022/01/16 23:49:07;;;;;;;18.75;11.27;;;;;;;2.77;66.03;98460.13;12813318;23;20021;-80
2022/01/16 23:54:28;;;;;;;17.77;11.02;;;;;;;2.81;66.26;98477.88;12834850;23;20062;-81
2022/01/16 23:59:49;;;;;;;16.00;11.18;;;;;;;2.84;65.96;98471.28;12812687;23;20025;-80
